Terminal Aerodrome Forecast
Issued by NWS

Home | Current Version | Previous Version | Text Only | Print | Product List | Glossary Off
Versions: 1 2 3 4 5 6 7 8 9 10 11 12 13 14

471
FTUS43 KTOP 191720
TAFMHK
TAF
KMHK 191720Z 1918/2018 22012KT P6SM SKC
     FM200300 19006KT P6SM FEW250 WS010/20040KT
     FM201400 18012G20KT P6SM SCT200=

USA.gov is the U.S. government's official web portal to all federal, state and local government web resources and services.